Time;durP1;ratioP1;P1;durP2;ratioP2;P2;SDS_P1;SDS_P2;PMS_P1;PMS_P2;Temp;Humidity;BMP_temperature;BMP_pressure;BME280_temperature;BME280_humidity;BME280_pressure;Samples;Min_cycle;Max_cycle;Signal;HPM_P1;HPM_P2
2022/01/08 00:01:40;;;;;;;117.78;39.53;;;;;;;;;;5035093;28;20045;-84
2022/01/08 00:04:06;;;;;;;107.63;37.35;;;;;;;;;;5017515;28;20447;-84
2022/01/08 00:06:32;;;;;;;121.53;38.42;;;;;;;;;;5017072;28;20041;-84
2022/01/08 00:08:59;;;;;;;119.40;37.05;;;;;;;;;;5035028;28;20048;-84
2022/01/08 00:11:27;;;;;;;118.78;37.17;;;;;;;;;;5017060;28;20087;-84
2022/01/08 00:13:54;;;;;;;128.93;40.00;;;;;;;;;;5017156;28;20038;-84
2022/01/08 00:16:20;;;;;;;120.95;38.03;;;;;;;;;;5017234;28;20025;-84
2022/01/08 00:18:47;;;;;;;113.85;39.45;;;;;;;;;;5016957;28;20053;-84
2022/01/08 00:21:13;;;;;;;120.53;39.42;;;;;;;;;;5035144;28;20142;-84
2022/01/08 00:23:40;;;;;;;127.00;39.25;;;;;;;;;;5017054;28;20061;-84
2022/01/08 00:26:06;;;;;;;128.88;41.25;;;;;;;;;;5017448;28;20041;-84
2022/01/08 00:28:33;;;;;;;133.20;40.63;;;;;;;;;;5016907;28;20506;-84
2022/01/08 00:30:59;;;;;;;115.85;39.33;;;;;;;;;;5016810;28;20072;-84
2022/01/08 00:33:25;;;;;;;120.53;39.03;;;;;;;;;;5016645;28;20053;-84
2022/01/08 00:35:51;;;;;;;121.72;37.55;;;;;;;;;;5034729;28;20121;-84
2022/01/08 00:38:18;;;;;;;130.57;39.40;;;;;;;;;;5016754;28;20033;-84
2022/01/08 00:40:44;;;;;;;136.05;41.10;;;;;;;;;;5016771;28;20046;-84
2022/01/08 00:43:10;;;;;;;112.90;37.70;;;;;;;;;;5034530;28;20108;-84
2022/01/08 00:45:37;;;;;;;100.03;35.08;;;;;;;;;;5016920;28;20519;-84
2022/01/08 00:48:03;;;;;;;119.30;36.10;;;;;;;;;;5034547;28;20041;-84
2022/01/08 00:50:29;;;;;;;115.35;36.00;;;;;;;;;;5034289;28;20125;-84
2022/01/08 00:52:56;;;;;;;109.25;36.30;;;;;;;;;;5016575;28;20059;-84
2022/01/08 00:55:22;;;;;;;98.80;33.90;;;;;;;;;;5016531;28;20384;-84
2022/01/08 00:57:48;;;;;;;99.65;35.42;;;;;;;;;;5016508;28;20029;-84
2022/01/08 01:00:15;;;;;;;98.82;34.40;;;;;;;;;;5016514;28;20447;-84
2022/01/08 01:02:42;;;;;;;91.63;33.20;;;;;;;;;;5016332;28;20087;-84
2022/01/08 01:05:08;;;;;;;90.85;33.20;;;;;;;;;;5016316;28;20061;-84
2022/01/08 01:07:35;;;;;;;93.93;32.67;;;;;;;;;;5016341;28;20369;-84
2022/01/08 01:10:01;;;;;;;89.70;33.28;;;;;;;;;;5033655;28;20034;-84
2022/01/08 01:12:28;;;;;;;86.00;30.67;;;;;;;;;;5016273;28;20033;-83
2022/01/08 01:14:54;;;;;;;91.45;34.17;;;;;;;;;;5016270;28;20056;-84
2022/01/08 01:17:20;;;;;;;99.10;37.90;;;;;;;;;;5016276;28;20107;-84
2022/01/08 01:19:48;;;;;;;96.18;36.78;;;;;;;;;;5033858;28;20025;-84
2022/01/08 01:22:18;;;;;;;109.68;40.17;;;;;;;;;;5033593;28;20396;-84
2022/01/08 01:24:45;;;;;;;89.25;33.25;;;;;;;;;;5016193;28;20029;-84
2022/01/08 01:30:12;;;;;;;90.38;31.90;;;;;;;;;;5033960;28;20212;-84
2022/01/08 01:49:10;;;;;;;94.93;34.20;;;;;;;;;;5033790;28;20089;-84
2022/01/08 01:51:36;;;;;;;100.57;34.53;;;;;;;;;;5033524;28;20071;-84
2022/01/08 01:54:03;;;;;;;102.22;35.17;;;;;;;;;;5015690;28;20542;-84
2022/01/08 01:56:29;;;;;;;98.65;36.05;;;;;;;;;;5015912;28;20067;-84
2022/01/08 01:58:55;;;;;;;97.07;32.67;;;;;;;;;;5015699;28;20026;-84
2022/01/08 02:01:22;;;;;;;84.43;30.38;;;;;;;;;;5015820;28;20029;-84
2022/01/08 02:03:48;;;;;;;87.07;29.88;;;;;;;;;;5015896;28;20147;-84
2022/01/08 02:06:14;;;;;;;95.05;31.38;;;;;;;;;;5015583;28;20492;-84
2022/01/08 02:08:42;;;;;;;88.93;33.00;;;;;;;;;;5015996;28;20420;-84
2022/01/08 02:11:08;;;;;;;93.63;30.83;;;;;;;;;;5015442;28;20042;-84
2022/01/08 02:13:36;;;;;;;95.47;31.90;;;;;;;;;;5033426;28;20029;-84
2022/01/08 02:16:04;;;;;;;83.07;29.40;;;;;;;;;;5015684;28;20468;-84
2022/01/08 02:18:30;;;;;;;94.82;31.45;;;;;;;;;;5015561;28;20128;-84
2022/01/08 02:20:58;;;;;;;97.15;32.08;;;;;;;;;;5015858;28;20096;-84
2022/01/08 02:23:25;;;;;;;98.88;33.17;;;;;;;;;;5018329;28;20068;-84
2022/01/08 02:25:51;;;;;;;87.43;31.02;;;;;;;;;;5019324;28;20063;-84
2022/01/08 02:28:18;;;;;;;92.95;31.77;;;;;;;;;;5019169;28;20033;-83
2022/01/08 02:30:44;;;;;;;101.50;32.60;;;;;;;;;;5018870;28;20468;-84
2022/01/08 02:33:11;;;;;;;93.75;31.63;;;;;;;;;;5019053;28;20136;-84
2022/01/08 02:35:37;;;;;;;99.53;32.25;;;;;;;;;;5019122;28;20038;-84
2022/01/08 02:38:04;;;;;;;97.70;31.63;;;;;;;;;;5036979;28;20032;-84
2022/01/08 02:40:30;;;;;;;116.03;35.20;;;;;;;;;;5018674;28;20373;-84
2022/01/08 02:43:04;;;;;;;103.72;36.38;;;;;;;;;;5019047;28;20064;-84
2022/01/08 02:45:30;;;;;;;115.93;37.10;;;;;;;;;;5018978;28;20034;-84
2022/01/08 02:47:57;;;;;;;132.48;37.33;;;;;;;;;;5036649;28;20488;-84
2022/01/08 02:50:24;;;;;;;109.88;33.63;;;;;;;;;;5018747;28;20049;-84
2022/01/08 02:52:51;;;;;;;120.30;36.22;;;;;;;;;;5018721;28;20042;-84
2022/01/08 02:55:18;;;;;;;107.32;33.47;;;;;;;;;;5018698;28;20079;-84
2022/01/08 02:57:45;;;;;;;107.25;34.88;;;;;;;;;;5036680;28;20034;-84
2022/01/08 03:00:12;;;;;;;106.25;34.22;;;;;;;;;;5018611;28;20459;-84
2022/01/08 03:02:43;;;;;;;102.93;33.55;;;;;;;;;;5018627;28;20037;-84
2022/01/08 03:05:11;;;;;;;106.20;33.70;;;;;;;;;;5018536;28;20068;-84
2022/01/08 03:07:38;;;;;;;108.05;33.08;;;;;;;;;;5018376;28;20033;-84
2022/01/08 03:10:05;;;;;;;119.13;36.08;;;;;;;;;;5018197;28;20571;-84
2022/01/08 03:12:32;;;;;;;101.60;34.22;;;;;;;;;;5018460;28;20539;-84
2022/01/08 03:14:58;;;;;;;101.78;34.25;;;;;;;;;;5036166;28;20116;-84
2022/01/08 03:17:25;;;;;;;101.10;34.47;;;;;;;;;;5018211;28;20488;-84
2022/01/08 03:19:53;;;;;;;109.38;36.05;;;;;;;;;;5018316;28;20041;-84
2022/01/08 03:22:19;;;;;;;106.90;35.53;;;;;;;;;;5018167;28;20080;-84
2022/01/08 03:24:46;;;;;;;100.28;35.00;;;;;;;;;;5036169;28;20036;-84
2022/01/08 03:27:12;;;;;;;110.35;34.70;;;;;;;;;;5018043;28;20380;-84
2022/01/08 03:29:38;;;;;;;107.53;34.88;;;;;;;;;;5018096;28;20072;-84
2022/01/08 03:32:05;;;;;;;99.45;32.47;;;;;;;;;;5018159;28;20068;-84
2022/01/08 03:34:31;;;;;;;109.25;34.22;;;;;;;;;;5017538;28;20053;-84
2022/01/08 03:36:57;;;;;;;100.72;31.73;;;;;;;;;;5018246;28;20496;-84
2022/01/08 03:39:24;;;;;;;94.32;32.00;;;;;;;;;;5017912;28;20063;-85
2022/01/08 03:41:50;;;;;;;97.13;33.05;;;;;;;;;;5035844;28;20096;-84
2022/01/08 03:44:16;;;;;;;98.90;33.33;;;;;;;;;;5017748;28;20128;-84
2022/01/08 03:46:42;;;;;;;88.93;29.17;;;;;;;;;;5017826;28;20030;-84
2022/01/08 03:51:38;;;;;;;91.22;29.15;;;;;;;;;;5035394;28;20034;-84
2022/01/08 03:54:04;;;;;;;105.53;32.28;;;;;;;;;;5017355;28;20545;-84
2022/01/08 03:56:31;;;;;;;100.88;33.00;;;;;;;;;;5017649;28;20030;-85
2022/01/08 03:58:57;;;;;;;96.60;32.50;;;;;;;;;;5017482;28;20032;-84
2022/01/08 04:01:23;;;;;;;101.50;32.70;;;;;;;;;;5017516;28;20072;-85
2022/01/08 04:03:50;;;;;;;95.05;31.73;;;;;;;;;;5017438;28;20057;-84
2022/01/08 04:06:16;;;;;;;96.72;31.42;;;;;;;;;;5017498;28;20029;-85
2022/01/08 04:08:42;;;;;;;90.53;31.90;;;;;;;;;;5017524;28;20064;-84
2022/01/08 04:11:08;;;;;;;77.57;29.38;;;;;;;;;;5017526;28;20511;-85
2022/01/08 04:13:38;;;;;;;82.45;29.15;;;;;;;;;;5017406;28;20124;-85
2022/01/08 04:16:15;;;;;;;108.05;32.70;;;;;;;;;;5017360;28;20041;-85
2022/01/08 04:18:41;;;;;;;87.15;33.20;;;;;;;;;;5017179;28;20408;-84
2022/01/08 04:23:33;;;;;;;83.85;33.80;;;;;;;;;;5034737;28;20083;-84
2022/01/08 04:26:00;;;;;;;90.13;35.88;;;;;;;;;;5017070;28;20492;-84
2022/01/08 04:28:26;;;;;;;80.75;33.10;;;;;;;;;;5017076;28;20026;-85
2022/01/08 04:30:52;;;;;;;86.22;34.40;;;;;;;;;;5017016;28;20057;-85
2022/01/08 04:33:18;;;;;;;93.95;37.33;;;;;;;;;;5016829;28;20107;-85
2022/01/08 04:35:45;;;;;;;90.05;36.00;;;;;;;;;;5016886;28;20029;-85
2022/01/08 04:38:12;;;;;;;89.60;35.58;;;;;;;;;;5016765;28;20044;-85
2022/01/08 04:40:38;;;;;;;95.20;37.50;;;;;;;;;;5016885;28;20067;-85
2022/01/08 04:43:05;;;;;;;95.95;37.65;;;;;;;;;;5016842;28;20492;-86
2022/01/08 04:45:31;;;;;;;85.10;34.90;;;;;;;;;;5016260;28;20048;-85
2022/01/08 04:47:58;;;;;;;91.47;37.03;;;;;;;;;;5016408;28;20037;-84
2022/01/08 04:50:25;;;;;;;81.75;31.95;;;;;;;;;;5016615;28;20073;-84
2022/01/08 04:52:51;;;;;;;82.90;34.25;;;;;;;;;;5016627;28;20476;-84
2022/01/08 04:55:18;;;;;;;88.70;34.75;;;;;;;;;;5034349;28;20511;-84
2022/01/08 04:57:44;;;;;;;73.35;31.42;;;;;;;;;;5016559;28;20045;-84
2022/01/08 05:00:11;;;;;;;92.50;37.15;;;;;;;;;;5016451;28;20080;-85
2022/01/08 05:02:37;;;;;;;81.57;35.58;;;;;;;;;;5016564;28;20029;-84
2022/01/08 05:05:04;;;;;;;87.85;36.70;;;;;;;;;;5016411;28;20075;-84
2022/01/08 05:07:30;;;;;;;97.95;41.60;;;;;;;;;;5016451;28;20041;-85
2022/01/08 05:09:56;;;;;;;100.53;44.15;;;;;;;;;;5016252;28;20033;-84
2022/01/08 05:12:23;;;;;;;95.15;40.38;;;;;;;;;;5033804;28;20030;-84
2022/01/08 05:14:49;;;;;;;109.22;43.35;;;;;;;;;;5016357;28;20140;-85
2022/01/08 05:17:16;;;;;;;94.15;40.25;;;;;;;;;;5017485;28;20121;-84
2022/01/08 05:19:50;;;;;;;110.00;43.92;;;;;;;;;;5034007;28;20030;-84
2022/01/08 05:22:23;;;;;;;108.45;42.58;;;;;;;;;;5016226;28;20116;-84
2022/01/08 05:24:49;;;;;;;110.30;43.08;;;;;;;;;;5016230;28;20064;-83
2022/01/08 05:27:17;;;;;;;107.20;41.28;;;;;;;;;;5016007;28;20480;-84
2022/01/08 05:29:47;;;;;;;100.40;40.70;;;;;;;;;;5015976;28;20038;-84
2022/01/08 05:32:17;;;;;;;109.30;44.28;;;;;;;;;;5016053;28;20069;-84
2022/01/08 05:34:44;;;;;;;95.72;40.20;;;;;;;;;;5015992;28;20053;-84
2022/01/08 05:37:10;;;;;;;99.78;41.63;;;;;;;;;;5016042;28;20064;-84
2022/01/08 05:39:36;;;;;;;100.13;42.08;;;;;;;;;;5016152;28;20037;-84
2022/01/08 05:42:03;;;;;;;96.53;39.85;;;;;;;;;;5015938;28;20037;-84
2022/01/08 05:44:29;;;;;;;93.40;40.97;;;;;;;;;;5015859;28;20029;-84
2022/01/08 05:46:55;;;;;;;101.88;42.88;;;;;;;;;;5016028;28;20151;-84
2022/01/08 05:49:21;;;;;;;90.50;35.15;;;;;;;;;;5033644;28;20026;-84
2022/01/08 05:51:48;;;;;;;96.18;39.92;;;;;;;;;;5015924;28;20037;-84
2022/01/08 05:54:14;;;;;;;94.18;42.58;;;;;;;;;;5015671;28;20030;-84
2022/01/08 05:56:41;;;;;;;95.60;40.25;;;;;;;;;;5015765;28;20438;-84
2022/01/08 05:59:07;;;;;;;94.07;38.30;;;;;;;;;;5037879;28;20033;-84
2022/01/08 06:01:34;;;;;;;98.55;41.40;;;;;;;;;;5019680;28;20034;-84
2022/01/08 06:04:01;;;;;;;95.88;39.75;;;;;;;;;;5019681;28;20112;-84
2022/01/08 06:06:28;;;;;;;105.88;42.63;;;;;;;;;;5037385;28;20037;-84
2022/01/08 06:08:54;;;;;;;107.25;40.72;;;;;;;;;;5019530;28;20519;-84
2022/01/08 06:11:20;;;;;;;101.05;41.58;;;;;;;;;;5019601;28;20053;-84
2022/01/08 06:13:47;;;;;;;94.57;39.10;;;;;;;;;;5019537;28;20034;-84
2022/01/08 06:16:13;;;;;;;96.95;40.17;;;;;;;;;;5037173;28;20042;-84
2022/01/08 06:18:39;;;;;;;110.30;44.05;;;;;;;;;;5019425;28;20103;-84
2022/01/08 06:21:06;;;;;;;107.85;44.40;;;;;;;;;;5019376;28;20128;-84
2022/01/08 06:23:32;;;;;;;136.60;53.47;;;;;;;;;;5019267;28;20091;-84
2022/01/08 06:25:59;;;;;;;124.15;49.42;;;;;;;;;;5019332;28;20052;-85
2022/01/08 06:28:25;;;;;;;110.18;45.30;;;;;;;;;;5019251;28;20442;-84
2022/01/08 06:30:53;;;;;;;118.85;47.08;;;;;;;;;;5018979;28;20121;-84
2022/01/08 06:33:20;;;;;;;123.32;48.95;;;;;;;;;;5019119;28;20058;-84
2022/01/08 06:35:48;;;;;;;127.90;46.47;;;;;;;;;;5019111;28;20468;-84
2022/01/08 06:38:15;;;;;;;115.68;46.45;;;;;;;;;;5019052;28;20244;-84
2022/01/08 06:40:41;;;;;;;121.60;48.20;;;;;;;;;;5019047;28;20041;-85
2022/01/08 06:43:08;;;;;;;124.53;45.60;;;;;;;;;;5036869;28;20167;-85
2022/01/08 06:45:34;;;;;;;107.07;44.40;;;;;;;;;;5036607;28;20036;-84
2022/01/08 06:48:00;;;;;;;114.28;47.90;;;;;;;;;;5018860;28;20034;-84
2022/01/08 06:50:28;;;;;;;104.80;42.40;;;;;;;;;;5018896;28;20059;-84
2022/01/08 06:52:55;;;;;;;101.82;43.33;;;;;;;;;;5018843;28;20121;-84
2022/01/08 06:55:21;;;;;;;117.53;45.88;;;;;;;;;;5018799;28;20101;-84
2022/01/08 06:57:48;;;;;;;115.95;45.88;;;;;;;;;;5036523;28;20036;-85
2022/01/08 07:00:14;;;;;;;118.78;45.88;;;;;;;;;;5018618;28;20033;-84
2022/01/08 07:02:40;;;;;;;111.13;42.63;;;;;;;;;;5018649;28;20037;-84
2022/01/08 07:05:07;;;;;;;108.93;45.17;;;;;;;;;;5018559;28;20029;-84
2022/01/08 07:07:33;;;;;;;117.78;47.85;;;;;;;;;;5017992;28;20451;-84
2022/01/08 07:09:59;;;;;;;125.05;50.95;;;;;;;;;;5018317;28;20033;-84
2022/01/08 07:12:26;;;;;;;120.35;47.65;;;;;;;;;;5018905;28;20037;-84
2022/01/08 07:14:52;;;;;;;127.90;51.63;;;;;;;;;;5018516;28;20033;-85
2022/01/08 07:17:18;;;;;;;125.28;51.72;;;;;;;;;;5036146;28;20446;-84
2022/01/08 07:19:44;;;;;;;118.78;48.38;;;;;;;;;;5018334;28;20040;-84
2022/01/08 07:22:11;;;;;;;119.00;48.83;;;;;;;;;;5018415;28;20038;-85
2022/01/08 07:24:37;;;;;;;112.50;48.35;;;;;;;;;;5018380;28;20034;-84
2022/01/08 07:27:03;;;;;;;114.93;51.53;;;;;;;;;;5018192;28;20041;-84
2022/01/08 07:29:30;;;;;;;124.03;50.85;;;;;;;;;;5018081;28;20029;-84
2022/01/08 07:31:56;;;;;;;120.43;48.20;;;;;;;;;;5018102;28;20069;-84
2022/01/08 07:34:23;;;;;;;129.63;50.92;;;;;;;;;;5017779;28;20134;-84
2022/01/08 07:36:49;;;;;;;114.47;49.30;;;;;;;;;;5018045;28;20035;-84
2022/01/08 07:39:15;;;;;;;119.07;49.88;;;;;;;;;;5017901;28;20483;-84
2022/01/08 07:41:41;;;;;;;119.82;50.33;;;;;;;;;;5017733;28;20035;-84
2022/01/08 07:44:08;;;;;;;126.53;53.30;;;;;;;;;;5018043;28;20033;-85
2022/01/08 07:46:34;;;;;;;132.73;54.33;;;;;;;;;;5017889;28;20498;-84
2022/01/08 07:49:01;;;;;;;133.30;51.20;;;;;;;;;;5017663;28;20476;-84
2022/01/08 07:51:27;;;;;;;113.75;50.72;;;;;;;;;;5017827;28;20392;-84
2022/01/08 07:53:53;;;;;;;121.35;50.03;;;;;;;;;;5017610;28;20037;-84
2022/01/08 07:56:19;;;;;;;109.45;48.30;;;;;;;;;;5035477;28;20064;-84
2022/01/08 07:58:46;;;;;;;115.15;48.72;;;;;;;;;;5017669;28;20361;-85
2022/01/08 08:01:12;;;;;;;111.15;46.38;;;;;;;;;;5035422;28;20029;-85
2022/01/08 08:03:38;;;;;;;113.95;47.50;;;;;;;;;;5017188;28;20381;-84
2022/01/08 08:06:09;;;;;;;113.28;48.38;;;;;;;;;;5017572;28;20029;-85
2022/01/08 08:08:36;;;;;;;116.30;49.28;;;;;;;;;;5017518;28;20502;-85
2022/01/08 08:11:02;;;;;;;124.63;51.42;;;;;;;;;;5017149;28;20566;-84
2022/01/08 08:13:29;;;;;;;108.40;47.17;;;;;;;;;;5017501;28;20120;-84
2022/01/08 08:15:55;;;;;;;114.00;50.15;;;;;;;;;;5034976;28;20044;-85
2022/01/08 08:18:21;;;;;;;106.40;49.13;;;;;;;;;;5017277;28;20040;-85
2022/01/08 08:20:48;;;;;;;108.90;48.85;;;;;;;;;;5016509;28;20064;-85
2022/01/08 08:23:14;;;;;;;113.10;48.65;;;;;;;;;;5034968;28;20029;-85
2022/01/08 08:25:40;;;;;;;114.22;48.50;;;;;;;;;;5017161;28;20029;-85
2022/01/08 08:28:07;;;;;;;119.20;50.38;;;;;;;;;;5017418;28;20037;-85
2022/01/08 08:30:34;;;;;;;103.82;46.80;;;;;;;;;;5034942;28;20041;-85
2022/01/08 08:33:01;;;;;;;107.40;49.15;;;;;;;;;;5017029;28;20140;-83
2022/01/08 08:35:27;;;;;;;107.47;46.75;;;;;;;;;;5035002;28;20136;-85
2022/01/08 08:37:53;;;;;;;101.85;46.65;;;;;;;;;;5016986;28;20120;-85
2022/01/08 08:40:20;;;;;;;110.57;49.28;;;;;;;;;;5016766;28;20388;-85
2022/01/08 08:42:46;;;;;;;108.78;48.58;;;;;;;;;;5016910;28;20038;-85
2022/01/08 08:45:13;;;;;;;110.10;48.22;;;;;;;;;;5016835;28;20033;-85
2022/01/08 08:47:40;;;;;;;116.18;54.22;;;;;;;;;;5016852;28;20040;-85
2022/01/08 08:50:08;;;;;;;119.15;52.78;;;;;;;;;;5016799;28;20076;-85
2022/01/08 08:52:34;;;;;;;113.38;50.40;;;;;;;;;;5016689;28;20030;-85
2022/01/08 08:55:00;;;;;;;111.88;49.90;;;;;;;;;;5016460;28;20060;-85
2022/01/08 08:57:27;;;;;;;106.72;48.35;;;;;;;;;;5016544;28;20128;-85
2022/01/08 08:59:55;;;;;;;115.15;52.15;;;;;;;;;;5016942;28;20154;-85
2022/01/08 09:02:22;;;;;;;119.07;51.58;;;;;;;;;;5034234;28;20072;-85
2022/01/08 09:04:49;;;;;;;106.50;50.08;;;;;;;;;;5034429;28;20540;-84
2022/01/08 09:07:15;;;;;;;117.20;50.83;;;;;;;;;;5016535;28;20128;-84
2022/01/08 09:09:41;;;;;;;123.35;53.42;;;;;;;;;;5016541;28;20080;-84
2022/01/08 09:12:09;;;;;;;113.07;49.78;;;;;;;;;;5016161;28;20049;-84
2022/01/08 09:14:36;;;;;;;103.55;47.90;;;;;;;;;;5016348;28;20112;-85
2022/01/08 09:17:06;;;;;;;110.72;49.88;;;;;;;;;;5016184;28;20476;-84
2022/01/08 09:19:33;;;;;;;114.15;49.95;;;;;;;;;;5016262;28;20084;-84
2022/01/08 09:22:01;;;;;;;121.10;51.58;;;;;;;;;;5016345;28;20033;-84
2022/01/08 09:24:27;;;;;;;111.10;47.55;;;;;;;;;;5016139;28;20026;-84
2022/01/08 09:26:53;;;;;;;111.57;50.35;;;;;;;;;;5016128;28;20079;-85
2022/01/08 09:29:20;;;;;;;112.97;48.47;;;;;;;;;;5034155;28;20034;-85
2022/01/08 09:31:46;;;;;;;117.63;52.28;;;;;;;;;;5015746;28;20037;-84
2022/01/08 09:34:13;;;;;;;122.93;52.90;;;;;;;;;;5015945;28;20058;-84
2022/01/08 09:36:40;;;;;;;123.88;53.80;;;;;;;;;;5016216;28;20026;-84
2022/01/08 09:39:07;;;;;;;127.40;54.47;;;;;;;;;;5008322;28;20518;-84
2022/01/08 09:41:35;;;;;;;119.18;53.67;;;;;;;;;;5034126;28;20141;-85
2022/01/08 09:44:01;;;;;;;123.32;53.10;;;;;;;;;;5016135;28;20034;-85
2022/01/08 09:46:27;;;;;;;123.85;55.33;;;;;;;;;;5016135;28;20057;-85
2022/01/08 09:48:54;;;;;;;110.53;50.45;;;;;;;;;;5016115;28;20026;-85
2022/01/08 09:51:20;;;;;;;129.88;54.03;;;;;;;;;;5015909;28;20034;-85
2022/01/08 09:53:46;;;;;;;125.75;56.40;;;;;;;;;;5033503;28;20720;-85
2022/01/08 09:56:13;;;;;;;143.65;57.95;;;;;;;;;;5015892;28;20037;-85
2022/01/08 09:58:39;;;;;;;144.95;59.75;;;;;;;;;;5015915;28;20029;-84
2022/01/08 10:01:24;;;;;;;139.15;60.13;;;;;;;;;;5033791;28;20041;-84
2022/01/08 10:03:50;;;;;;;138.93;58.85;;;;;;;;;;5015802;28;20536;-84
2022/01/08 10:06:23;;;;;;;134.73;58.00;;;;;;;;;;5015804;28;20072;-85
2022/01/08 10:08:50;;;;;;;137.48;57.28;;;;;;;;;;5015878;28;20083;-84
2022/01/08 10:11:16;;;;;;;130.32;54.45;;;;;;;;;;5015639;28;20073;-84
2022/01/08 10:13:45;;;;;;;139.50;59.00;;;;;;;;;;5015631;28;20040;-85
2022/01/08 10:18:57;;;;;;;128.98;52.75;;;;;;;;;;5033778;28;20040;-84
2022/01/08 10:21:24;;;;;;;139.60;58.55;;;;;;;;;;5015903;28;20091;-85
2022/01/08 10:23:52;;;;;;;150.43;55.97;;;;;;;;;;5033471;28;20104;-85
2022/01/08 10:26:20;;;;;;;146.80;60.05;;;;;;;;;;5015749;28;20130;-84
2022/01/08 10:28:50;;;;;;;142.23;58.25;;;;;;;;;;5015602;28;20072;-84
2022/01/08 10:31:22;;;;;;;144.35;59.55;;;;;;;;;;5015580;28;20130;-85
2022/01/08 10:33:54;;;;;;;143.40;59.72;;;;;;;;;;5033253;28;20481;-84
2022/01/08 10:36:21;;;;;;;158.20;63.22;;;;;;;;;;5015853;28;20033;-85
2022/01/08 10:38:52;;;;;;;141.15;57.80;;;;;;;;;;5015499;28;20037;-85
2022/01/08 10:41:19;;;;;;;149.73;62.72;;;;;;;;;;5015662;28;20038;-85
2022/01/08 10:43:45;;;;;;;152.10;62.42;;;;;;;;;;5017083;28;20029;-85
2022/01/08 10:46:12;;;;;;;174.52;69.88;;;;;;;;;;5018604;28;20391;-85
2022/01/08 10:48:38;;;;;;;183.10;74.28;;;;;;;;;;5019202;28;20040;-84
2022/01/08 10:51:26;;;;;;;195.98;77.95;;;;;;;;;;5018910;28;20049;-84
2022/01/08 10:54:11;;;;;;;188.73;74.32;;;;;;;;;;5018781;28;20380;-85
2022/01/08 10:56:45;;;;;;;167.98;68.22;;;;;;;;;;5018641;28;20092;-85
2022/01/08 10:59:18;;;;;;;177.75;73.57;;;;;;;;;;5018822;28;20546;-85
2022/01/08 11:01:58;;;;;;;195.88;77.85;;;;;;;;;;5018706;28;20033;-85
2022/01/08 11:04:49;;;;;;;200.60;78.40;;;;;;;;;;5018760;28;20034;-85
2022/01/08 11:07:25;;;;;;;198.82;81.22;;;;;;;;;;5018743;28;20025;-85
2022/01/08 11:09:52;;;;;;;211.43;85.72;;;;;;;;;;5018579;28;20033;-85
2022/01/08 11:12:30;;;;;;;231.57;95.75;;;;;;;;;;5018456;28;20045;-85
2022/01/08 11:17:42;;;;;;;255.98;103.13;;;;;;;;;;5036384;28;20029;-85
2022/01/08 11:20:11;;;;;;;267.98;103.85;;;;;;;;;;5018607;28;20485;-85
2022/01/08 11:22:39;;;;;;;253.68;99.78;;;;;;;;;;5018677;28;20163;-85
2022/01/08 11:25:09;;;;;;;246.57;98.40;;;;;;;;;;5018378;28;20033;-85
2022/01/08 11:28:02;;;;;;;244.57;96.70;;;;;;;;;;5036453;28;20065;-85
2022/01/08 11:30:32;;;;;;;229.02;93.70;;;;;;;;;;5015397;28;20192;-84
2022/01/08 11:33:04;;;;;;;245.45;97.72;;;;;;;;;;5036099;28;20041;-85
2022/01/08 11:35:31;;;;;;;255.23;97.53;;;;;;;;;;5018216;28;20033;-85
2022/01/08 11:38:02;;;;;;;262.17;106.38;;;;;;;;;;5017984;28;20040;-85
2022/01/08 11:40:29;;;;;;;243.20;96.18;;;;;;;;;;5036044;28;20104;-84
2022/01/08 11:42:58;;;;;;;239.13;95.25;;;;;;;;;;5018063;28;20519;-85
2022/01/08 11:45:28;;;;;;;255.43;98.63;;;;;;;;;;5017966;28;20128;-85
2022/01/08 11:47:56;;;;;;;262.08;101.65;;;;;;;;;;5018038;28;20079;-85
2022/01/08 11:50:26;;;;;;;238.20;99.18;;;;;;;;;;5017935;28;20038;-86
2022/01/08 11:53:11;;;;;;;259.70;105.50;;;;;;;;;;5035589;28;20068;-85
2022/01/08 11:55:37;;;;;;;248.18;99.22;;;;;;;;;;5017541;28;20033;-85
2022/01/08 11:58:26;;;;;;;265.02;100.97;;;;;;;;;;5001487;28;20428;-86
2022/01/08 12:00:55;;;;;;;254.07;98.53;;;;;;;;;;5035484;28;20029;-85
2022/01/08 12:03:23;;;;;;;241.00;93.70;;;;;;;;;;5017596;28;20519;-85
2022/01/08 12:05:49;;;;;;;269.88;103.82;;;;;;;;;;5017619;28;20445;-84
2022/01/08 12:08:18;;;;;;;237.75;93.75;;;;;;;;;;5017555;28;20038;-85
2022/01/08 12:10:56;;;;;;;249.30;97.18;;;;;;;;;;5035089;28;20042;-85
2022/01/08 12:13:41;;;;;;;272.20;103.55;;;;;;;;;;5035131;28;20032;-86
2022/01/08 12:16:27;;;;;;;275.20;100.35;;;;;;;;;;5017466;28;20045;-85
2022/01/08 12:18:54;;;;;;;270.15;98.40;;;;;;;;;;5017218;28;20030;-85
2022/01/08 12:21:33;;;;;;;241.85;94.88;;;;;;;;;;5017453;28;20037;-85
2022/01/08 12:24:20;;;;;;;265.05;99.45;;;;;;;;;;5017351;28;20040;-86
2022/01/08 12:26:46;;;;;;;270.48;100.93;;;;;;;;;;5017302;28;20069;-85
2022/01/08 12:29:33;;;;;;;260.20;102.68;;;;;;;;;;5016640;28;20507;-85
2022/01/08 12:32:40;;;;;;;262.60;99.75;;;;;;;;;;5017212;28;20053;-86
2022/01/08 12:35:19;;;;;;;314.25;113.97;;;;;;;;;;5018724;28;20492;-86
2022/01/08 12:37:53;;;;;;;335.23;121.88;;;;;;;;;;5034864;28;20164;-85
2022/01/08 12:40:32;;;;;;;289.40;108.40;;;;;;;;;;5017035;28;20030;-85
2022/01/08 12:42:59;;;;;;;309.40;115.80;;;;;;;;;;5017052;28;20062;-86
2022/01/08 12:45:35;;;;;;;318.08;111.53;;;;;;;;;;5017084;28;20034;-86
2022/01/08 12:48:01;;;;;;;302.42;109.25;;;;;;;;;;5017084;28;20034;-85
2022/01/08 12:50:27;;;;;;;328.67;113.13;;;;;;;;;;5016950;28;20034;-86
2022/01/08 12:53:06;;;;;;;298.85;112.18;;;;;;;;;;5016788;28;20049;-86
2022/01/08 12:55:43;;;;;;;290.83;108.60;;;;;;;;;;5016225;28;20053;-85
2022/01/08 12:58:13;;;;;;;306.75;110.70;;;;;;;;;;5016833;28;20431;-85
2022/01/08 13:00:56;;;;;;;283.83;104.55;;;;;;;;;;5016698;28;20040;-85
2022/01/08 13:03:24;;;;;;;298.90;112.28;;;;;;;;;;5016769;28;20506;-85
2022/01/08 13:05:51;;;;;;;334.33;123.78;;;;;;;;;;5034307;28;20111;-85
2022/01/08 13:08:24;;;;;;;334.08;119.47;;;;;;;;;;5034670;28;20071;-86
2022/01/08 13:10:56;;;;;;;313.02;118.15;;;;;;;;;;5016465;28;20041;-85
2022/01/08 13:13:23;;;;;;;342.70;125.60;;;;;;;;;;5034319;28;20029;-86
2022/01/08 13:15:49;;;;;;;423.00;141.13;;;;;;;;;;5016669;28;20036;-86
2022/01/08 13:18:16;;;;;;;366.88;128.65;;;;;;;;;;5016571;28;20033;-86
2022/01/08 13:20:43;;;;;;;336.63;122.90;;;;;;;;;;5016537;28;20373;-86
2022/01/08 13:23:13;;;;;;;334.38;121.20;;;;;;;;;;5016590;28;20040;-86
2022/01/08 13:25:39;;;;;;;311.85;114.05;;;;;;;;;;5034392;28;20472;-86
2022/01/08 13:28:06;;;;;;;262.58;101.45;;;;;;;;;;5016621;28;20113;-86
2022/01/08 13:30:33;;;;;;;291.88;104.22;;;;;;;;;;5016141;28;20040;-87
2022/01/08 13:33:04;;;;;;;281.90;99.20;;;;;;;;;;5016113;28;20077;-86
2022/01/08 13:35:30;;;;;;;259.65;96.45;;;;;;;;;;5016322;28;20029;-86
2022/01/08 13:37:56;;;;;;;308.42;110.28;;;;;;;;;;5016172;28;20041;-86
2022/01/08 13:40:26;;;;;;;305.40;109.38;;;;;;;;;;5034062;28;20476;-85
2022/01/08 13:42:53;;;;;;;310.20;108.95;;;;;;;;;;5016032;28;20396;-86
2022/01/08 13:45:25;;;;;;;304.65;107.97;;;;;;;;;;5015963;28;20040;-86
2022/01/08 13:47:53;;;;;;;334.95;113.97;;;;;;;;;;5016258;28;20029;-86
2022/01/08 13:50:22;;;;;;;347.75;123.22;;;;;;;;;;5016341;28;20040;-87
2022/01/08 13:52:53;;;;;;;333.27;119.10;;;;;;;;;;5030563;28;20025;-86
2022/01/08 13:55:21;;;;;;;312.00;112.57;;;;;;;;;;5016144;28;20026;-85
2022/01/08 13:57:53;;;;;;;363.10;128.38;;;;;;;;;;5016131;28;20128;-86
2022/01/08 14:00:21;;;;;;;344.70;126.30;;;;;;;;;;5016257;28;20026;-86
2022/01/08 14:02:49;;;;;;;355.58;129.57;;;;;;;;;;5016060;28;20041;-85
2022/01/08 14:05:15;;;;;;;366.05;127.93;;;;;;;;;;5033532;28;20033;-86
2022/01/08 14:07:42;;;;;;;351.60;122.45;;;;;;;;;;5016234;28;20040;-85
2022/01/08 14:10:09;;;;;;;305.55;110.78;;;;;;;;;;5033442;28;20025;-86
2022/01/08 14:12:35;;;;;;;310.23;110.35;;;;;;;;;;5016017;28;20033;-85
2022/01/08 14:15:04;;;;;;;310.35;111.22;;;;;;;;;;5016003;28;20388;-86
2022/01/08 14:17:31;;;;;;;274.67;100.72;;;;;;;;;;5016025;28;20137;-85
2022/01/08 14:19:58;;;;;;;319.98;107.15;;;;;;;;;;5019619;28;20034;-86
2022/01/08 14:22:25;;;;;;;272.10;97.38;;;;;;;;;;5019710;28;20424;-86
2022/01/08 14:24:51;;;;;;;259.70;93.40;;;;;;;;;;5019479;28;20029;-86
2022/01/08 14:27:20;;;;;;;276.42;98.78;;;;;;;;;;5019478;28;20052;-86
2022/01/08 14:29:47;;;;;;;291.95;97.93;;;;;;;;;;5019402;28;20480;-86
2022/01/08 14:32:16;;;;;;;287.10;96.93;;;;;;;;;;5019411;28;20465;-86
2022/01/08 14:34:47;;;;;;;275.88;97.03;;;;;;;;;;5019666;28;20052;-85
2022/01/08 14:37:26;;;;;;;255.15;92.32;;;;;;;;;;5019378;28;20388;-86
2022/01/08 14:39:53;;;;;;;279.98;95.85;;;;;;;;;;5019526;28;20025;-86
2022/01/08 14:42:20;;;;;;;297.42;98.93;;;;;;;;;;5019295;28;20102;-86